Time;durP1;ratioP1;P1;durP2;ratioP2;P2;SDS_P1;SDS_P2;PMS_P1;PMS_P2;Temp;Humidity;BMP_temperature;BMP_pressure;BME280_temperature;BME280_humidity;BME280_pressure;Samples;Min_cycle;Max_cycle;Signal;HPM_P1;HPM_P2
2021/01/26 00:00:53;;;;;;;14.00;8.18;;;;;;;3.35;100.00;101973.50;5069552;28;20120;-62
2021/01/26 00:03:19;;;;;;;17.85;8.55;;;;;;;3.38;100.00;101970.44;5070828;28;20028;-62
2021/01/26 00:05:45;;;;;;;10.48;8.27;;;;;;;3.42;100.00;101979.91;5069649;28;20041;-62
2021/01/26 00:08:11;;;;;;;15.45;7.68;;;;;;;3.43;100.00;101981.59;5070861;28;20544;-62
2021/01/26 00:10:38;;;;;;;13.52;7.85;;;;;;;3.42;100.00;101977.19;5070809;28;20135;-62
2021/01/26 00:13:05;;;;;;;11.95;7.72;;;;;;;3.42;100.00;101985.28;5070829;28;20364;-62
2021/01/26 00:15:30;;;;;;;12.43;8.35;;;;;;;3.43;100.00;101984.28;5070851;28;20044;-62
2021/01/26 00:17:56;;;;;;;15.82;8.52;;;;;;;3.44;100.00;101988.66;5070846;28;20040;-62
2021/01/26 00:20:22;;;;;;;12.25;7.40;;;;;;;3.46;100.00;101992.03;5070448;28;20528;-62
2021/01/26 00:22:48;;;;;;;14.88;7.95;;;;;;;3.44;100.00;101983.28;5070698;28;20063;-62
2021/01/26 00:25:21;;;;;;;12.30;7.38;;;;;;;3.44;100.00;101977.88;5070561;28;20498;-61
2021/01/26 00:27:46;;;;;;;11.70;7.30;;;;;;;3.44;100.00;101977.88;5071030;28;20414;-62
2021/01/26 00:30:18;;;;;;;11.48;7.28;;;;;;;3.47;100.00;101982.94;5070787;28;20045;-62
2021/01/26 00:32:44;;;;;;;11.85;7.03;;;;;;;3.49;100.00;101997.13;5070621;28;20044;-62
2021/01/26 00:35:13;;;;;;;11.88;7.03;;;;;;;3.50;100.00;101998.81;5070663;28;20104;-62
2021/01/26 00:37:38;;;;;;;13.57;7.55;;;;;;;3.50;100.00;101990.72;5070554;28;20028;-62
2021/01/26 00:40:05;;;;;;;10.02;6.95;;;;;;;3.52;100.00;101988.69;5070580;28;20475;-62
2021/01/26 00:42:30;;;;;;;11.85;6.82;;;;;;;3.51;100.00;101985.16;5070497;28;20049;-61
2021/01/26 00:44:56;;;;;;;10.38;6.53;;;;;;;3.53;100.00;101971.47;5070549;28;20043;-62
2021/01/26 00:47:22;;;;;;;9.98;6.65;;;;;;;3.54;100.00;101968.59;5070555;28;20036;-62
2021/01/26 00:49:48;;;;;;;13.80;7.13;;;;;;;3.55;100.00;101969.44;5070471;28;20486;-61
2021/01/26 00:52:13;;;;;;;14.20;6.72;;;;;;;3.54;100.00;101967.75;5070365;28;20032;-62
2021/01/26 00:54:39;;;;;;;10.70;6.05;;;;;;;3.57;100.00;101956.63;5070426;28;20040;-62
2021/01/26 00:57:05;;;;;;;11.15;6.22;;;;;;;3.60;100.00;101956.25;5070726;28;20502;-61
2021/01/26 00:59:32;;;;;;;9.73;6.15;;;;;;;3.62;100.00;101946.97;5070432;28;20574;-62
2021/01/26 01:01:58;;;;;;;10.15;5.18;;;;;;;3.65;100.00;101942.28;5070018;28;20402;-62
2021/01/26 01:04:23;;;;;;;9.73;5.50;;;;;;;3.68;100.00;101953.59;5070381;28;20036;-62
2021/01/26 01:06:49;;;;;;;8.18;5.30;;;;;;;3.72;100.00;101964.88;5070293;28;20068;-62
2021/01/26 01:09:15;;;;;;;10.65;6.45;;;;;;;3.74;100.00;101958.28;5070353;28;20432;-62
2021/01/26 01:11:41;;;;;;;10.05;6.50;;;;;;;3.76;100.00;101956.25;5070398;28;20040;-61
2021/01/26 01:14:07;;;;;;;11.38;7.20;;;;;;;3.78;100.00;101948.81;5070121;28;20069;-62
2021/01/26 01:16:33;;;;;;;10.57;6.75;;;;;;;3.79;100.00;101942.41;5070205;28;20041;-62
2021/01/26 01:18:58;;;;;;;8.85;5.18;;;;;;;3.80;100.00;101952.19;5070254;28;20063;-62
2021/01/26 01:21:24;;;;;;;9.35;6.00;;;;;;;3.83;100.00;101942.94;5069800;28;20055;-62
2021/01/26 01:23:50;;;;;;;13.90;6.55;;;;;;;3.85;100.00;101940.91;5070020;28;20032;-62
2021/01/26 01:26:15;;;;;;;10.95;6.30;;;;;;;3.84;100.00;101931.94;5070105;28;20041;-62
2021/01/26 01:28:41;;;;;;;12.07;6.45;;;;;;;3.83;100.00;101935.66;5071840;28;20068;-62
2021/01/26 01:31:07;;;;;;;9.95;5.75;;;;;;;3.83;100.00;101941.06;5073660;28;20131;-62
2021/01/26 01:33:33;;;;;;;15.27;7.70;;;;;;;3.82;100.00;101939.38;5073559;28;20071;-62
2021/01/26 01:35:58;;;;;;;12.27;6.25;;;;;;;3.83;100.00;101943.78;5073563;28;20063;-61
2021/01/26 01:38:25;;;;;;;9.52;7.18;;;;;;;3.84;100.00;101953.56;5073557;28;20044;-62
2021/01/26 01:40:53;;;;;;;13.02;7.20;;;;;;;3.84;100.00;101958.13;5073403;28;20064;-62
2021/01/26 01:43:19;;;;;;;15.98;7.07;;;;;;;3.84;100.00;101958.97;5073471;28;20044;-62
2021/01/26 01:45:45;;;;;;;11.02;6.13;;;;;;;3.84;100.00;101964.38;5073572;28;20036;-62
2021/01/26 01:48:25;;;;;;;12.45;5.85;;;;;;;3.87;100.00;101958.63;5073385;28;20032;-62
2021/01/26 01:50:57;;;;;;;9.55;6.03;;;;;;;3.90;100.00;101962.84;5073225;28;20039;-62
2021/01/26 01:53:33;;;;;;;9.32;5.95;;;;;;;3.91;100.00;101954.56;5073337;28;20033;-61
2021/01/26 01:56:17;;;;;;;10.50;5.63;;;;;;;3.93;100.00;101963.34;5073341;28;20430;-62
2021/01/26 01:58:55;;;;;;;13.85;5.95;;;;;;;3.96;100.00;101950.50;5073240;28;20085;-62
2021/01/26 02:01:25;;;;;;;12.35;6.47;;;;;;;3.98;100.00;101938.50;5073048;28;20040;-62
2021/01/26 02:03:54;;;;;;;10.45;6.43;;;;;;;4.01;100.00;101940.03;5071967;28;20037;-62
2021/01/26 02:06:24;;;;;;;9.02;5.32;;;;;;;4.04;100.00;101923.47;5071625;28;20456;-62
2021/01/26 02:08:59;;;;;;;8.98;5.85;;;;;;;4.07;100.00;101931.22;5073172;28;20111;-62
2021/01/26 02:11:26;;;;;;;10.07;5.80;;;;;;;4.11;100.00;101930.69;5073023;28;20179;-62
2021/01/26 02:13:51;;;;;;;9.52;6.28;;;;;;;4.15;100.00;101950.09;5072892;28;20294;-62
2021/01/26 02:16:32;;;;;;;10.00;6.72;;;;;;;4.20;100.00;101953.16;5073000;28;20097;-62
2021/01/26 02:19:33;;;;;;;8.57;5.80;;;;;;;4.23;100.00;101964.47;5072897;28;20033;-62
2021/01/26 02:22:23;;;;;;;9.98;5.50;;;;;;;4.29;100.00;101962.91;5071438;28;20082;-61
2021/01/26 02:24:57;;;;;;;9.40;5.32;;;;;;;4.36;100.00;101963.94;5071462;28;20032;-62
2021/01/26 02:27:58;;;;;;;;;;;;;;;4.44;100.00;101954.94;5073221;28;20394;-62
2021/01/26 02:30:45;;;;;;;8.13;3.97;;;;;;;4.50;100.00;101951.50;5072548;28;20278;-62
2021/01/26 02:33:42;;;;;;;10.05;4.82;;;;;;;4.63;100.00;101969.91;5072545;28;20036;-62
2021/01/26 02:36:16;;;;;;;6.55;1.98;;;;;;;4.88;100.00;101971.50;5072554;28;20033;-62
2021/01/26 02:39:01;;;;;;;;;;;;;;;5.25;100.00;101969.94;5072855;28;20119;-62
2021/01/26 02:41:45;;;;;;;3.22;0.93;;;;;;;5.64;100.00;101959.78;5072350;28;20019;-62
2021/01/26 02:44:31;;;;;;;7.00;1.17;;;;;;;5.97;100.00;101937.84;5072372;28;20036;-62
2021/01/26 02:47:18;;;;;;;2.95;0.88;;;;;;;6.17;100.00;101941.69;5072217;28;20126;-62
2021/01/26 02:50:27;;;;;;;6.85;0.60;;;;;;;6.44;100.00;101945.63;5072220;28;20032;-62
2021/01/26 02:53:06;;;;;;;4.55;0.98;;;;;;;6.56;100.00;101943.25;5071592;28;20510;-62
2021/01/26 02:55:44;;;;;;;5.70;0.70;;;;;;;6.66;100.00;101941.09;5072112;28;20064;-62
2021/01/26 02:58:31;;;;;;;3.58;0.70;;;;;;;6.73;100.00;101927.59;5072050;28;20375;-62
2021/01/26 03:00:59;;;;;;;2.75;0.68;;;;;;;6.78;100.00;101920.59;5071847;28;20036;-62
2021/01/26 03:03:32;;;;;;;5.30;0.75;;;;;;;6.84;100.00;101918.97;5071853;28;20047;-61
2021/01/26 03:06:04;;;;;;;6.25;0.75;;;;;;;6.87;100.00;101908.56;5072434;28;20036;-62
2021/01/26 03:08:37;;;;;;;7.00;1.13;;;;;;;6.93;100.00;101901.50;5071923;28;20036;-62
2021/01/26 03:11:17;;;;;;;4.32;1.02;;;;;;;6.98;100.00;101903.69;5071757;28;20107;-62
2021/01/26 03:14:00;;;;;;;3.08;0.93;;;;;;;7.05;100.00;101904.56;5071579;28;20033;-62
2021/01/26 03:16:31;;;;;;;2.38;0.65;;;;;;;7.07;100.00;101907.94;5071768;28;20062;-62
2021/01/26 03:19:06;;;;;;;3.28;0.70;;;;;;;7.09;100.00;101912.13;5071518;28;20048;-62
2021/01/26 03:21:34;;;;;;;9.32;0.70;;;;;;;7.13;100.00;101912.63;5071392;28;20048;-62
2021/01/26 03:24:06;;;;;;;2.97;0.70;;;;;;;7.14;100.00;101911.59;5071428;28;20041;-62
2021/01/26 03:26:35;;;;;;;6.28;0.68;;;;;;;7.17;100.00;101903.03;5071558;28;20032;-61
2021/01/26 03:29:05;;;;;;;5.15;1.08;;;;;;;7.21;100.00;101898.88;5071501;28;20036;-62
2021/01/26 03:31:52;;;;;;;5.35;0.60;;;;;;;7.28;100.00;101902.50;5071666;28;20043;-62
2021/01/26 03:34:21;;;;;;;9.38;1.15;;;;;;;7.34;100.00;101904.47;5071363;28;20037;-62
2021/01/26 03:36:48;;;;;;;5.40;1.02;;;;;;;7.35;100.00;101884.41;5071362;28;20036;-62
2021/01/26 03:39:14;;;;;;;7.78;0.90;;;;;;;7.37;100.00;101871.44;5071277;28;20471;-62
2021/01/26 03:41:40;;;;;;;3.17;0.60;;;;;;;7.42;100.00;101863.53;5071405;28;20082;-62
2021/01/26 03:44:09;;;;;;;5.30;0.80;;;;;;;7.49;100.00;101867.16;5071182;28;20037;-62
2021/01/26 03:46:51;;;;;;;8.88;0.85;;;;;;;7.56;100.00;101857.19;5071219;28;20114;-62
2021/01/26 03:49:58;;;;;;;3.85;1.17;;;;;;;7.60;100.00;101870.38;5071191;28;20486;-62
2021/01/26 03:53:06;;;;;;;6.22;0.80;;;;;;;7.65;100.00;101859.75;5070790;28;20058;-62
2021/01/26 03:55:43;;;;;;;7.32;1.00;;;;;;;7.68;100.00;101859.38;5069891;28;20127;-62
2021/01/26 03:58:27;;;;;;;2.60;0.90;;;;;;;7.72;100.00;101871.53;5069767;28;20514;-62
2021/01/26 04:01:23;;;;;;;4.43;0.70;;;;;;;7.76;100.00;101872.78;5070931;28;20032;-62
2021/01/26 04:04:06;;;;;;;;;;;;;;;7.79;100.00;101869.66;5071473;28;20269;-62
2021/01/26 04:06:48;;;;;;;6.97;0.80;;;;;;;7.83;100.00;101854.66;5070888;28;20317;-62
2021/01/26 04:09:27;;;;;;;9.77;0.95;;;;;;;7.86;100.00;101848.81;5071041;28;20397;-62
2021/01/26 04:11:58;;;;;;;4.72;1.48;;;;;;;7.83;100.00;101849.22;5071187;28;20411;-62
2021/01/26 04:14:31;;;;;;;2.25;0.90;;;;;;;7.84;100.00;101840.03;5070804;28;20114;-62
2021/01/26 04:17:08;;;;;;;5.05;1.52;;;;;;;7.84;100.00;101848.19;5070825;28;20119;-62
2021/01/26 04:19:40;;;;;;;5.60;1.08;;;;;;;7.84;100.00;101840.84;5070866;28;20477;-62
2021/01/26 04:22:08;;;;;;;7.93;1.10;;;;;;;7.85;100.00;101844.41;5070350;28;20410;-61
2021/01/26 04:24:35;;;;;;;6.10;0.95;;;;;;;7.86;100.00;101846.09;5070717;28;20028;-62
2021/01/26 04:27:08;;;;;;;4.85;1.00;;;;;;;7.82;100.00;101858.44;5070718;28;20070;-62
2021/01/26 04:29:33;;;;;;;12.80;1.55;;;;;;;7.80;100.00;101850.44;5070939;28;20435;-62
2021/01/26 04:31:59;;;;;;;3.72;1.23;;;;;;;7.79;100.00;101851.47;5069310;28;20032;-62
2021/01/26 04:34:25;;;;;;;8.73;1.00;;;;;;;7.77;100.00;101850.84;5070581;28;20055;-61
2021/01/26 04:36:51;;;;;;;11.05;1.10;;;;;;;7.75;100.00;101849.38;5070748;28;20131;-62
2021/01/26 04:39:16;;;;;;;8.10;1.25;;;;;;;7.74;100.00;101851.25;5070785;28;20043;-62
2021/01/26 04:41:52;;;;;;;8.68;1.58;;;;;;;7.77;100.00;101850.00;5070474;28;20083;-62
2021/01/26 04:45:00;;;;;;;2.58;0.82;;;;;;;7.77;100.00;101844.56;5070544;28;20124;-62
2021/01/26 04:47:44;;;;;;;5.40;0.65;;;;;;;7.77;100.00;101852.72;5070601;28;20043;-62
2021/01/26 04:50:19;;;;;;;6.80;1.55;;;;;;;7.77;100.00;101852.72;5070441;28;20036;-61
2021/01/26 04:53:03;;;;;;;;;;;;;;;7.79;100.00;101848.75;5070976;28;20029;-61
2021/01/26 04:55:50;;;;;;;12.98;1.38;;;;;;;7.80;100.00;101849.59;5070432;28;20006;-62
2021/01/26 04:58:48;;;;;;;9.10;1.02;;;;;;;7.86;100.00;101856.97;5070399;28;20107;-62
2021/01/26 05:01:24;;;;;;;3.60;0.77;;;;;;;7.88;100.00;101854.91;5070047;28;20037;-62
2021/01/26 05:04:07;;;;;;;7.55;1.02;;;;;;;7.89;100.00;101847.56;5072462;28;20039;-62
2021/01/26 05:06:39;;;;;;;5.43;0.73;;;;;;;7.92;100.00;101852.59;5074199;28;20040;-62
2021/01/26 05:09:11;;;;;;;5.70;1.08;;;;;;;7.97;100.00;101850.13;5074290;28;20459;-62
2021/01/26 05:11:41;;;;;;;2.97;0.80;;;;;;;7.99;100.00;101859.78;5073997;28;20044;-61
2021/01/26 05:14:15;;;;;;;7.07;1.42;;;;;;;8.01;100.00;101860.44;5074158;28;20478;-62
2021/01/26 05:17:26;;;;;;;6.40;1.05;;;;;;;8.03;100.00;101850.19;5073987;28;20429;-62
2021/01/26 05:19:59;;;;;;;2.13;0.80;;;;;;;8.06;100.00;101854.38;5073343;28;20051;-62
2021/01/26 05:22:40;;;;;;;8.82;0.95;;;;;;;8.05;100.00;101845.38;5073667;28;20379;-62
2021/01/26 05:25:10;;;;;;;6.50;0.80;;;;;;;8.10;100.00;101844.75;5074010;28;20068;-62
2021/01/26 05:27:36;;;;;;;6.20;1.35;;;;;;;8.14;100.00;101848.75;5073676;28;20418;-62
2021/01/26 05:30:06;;;;;;;8.05;1.23;;;;;;;8.17;100.00;101867.41;5073637;28;20036;-62
2021/01/26 05:32:32;;;;;;;4.95;0.90;;;;;;;8.16;100.00;101858.41;5073829;28;20474;-62
2021/01/26 05:34:57;;;;;;;6.32;1.00;;;;;;;8.15;100.00;101843.09;5073701;28;20067;-62
2021/01/26 05:37:24;;;;;;;4.75;1.35;;;;;;;8.13;100.00;101845.19;5073572;28;20127;-61
2021/01/26 05:39:59;;;;;;;8.10;1.33;;;;;;;8.17;100.00;101840.22;5073527;28;20048;-62
2021/01/26 05:42:26;;;;;;;8.35;1.38;;;;;;;8.13;100.00;101845.19;5073524;28;20143;-62
2021/01/26 05:45:30;;;;;;;11.57;1.13;;;;;;;8.10;100.00;101834.72;5073509;28;20105;-62
2021/01/26 05:48:08;;;;;;;8.70;1.17;;;;;;;8.09;100.00;101837.63;5064185;28;20051;-62
2021/01/26 05:50:36;;;;;;;6.45;1.67;;;;;;;8.08;100.00;101842.25;5071987;28;20040;-62
2021/01/26 05:53:15;;;;;;;8.02;1.70;;;;;;;8.09;100.00;101822.16;5073287;28;20037;-62
2021/01/26 05:55:46;;;;;;;11.40;0.95;;;;;;;8.10;100.00;101821.09;5072028;28;20036;-62
2021/01/26 05:58:14;;;;;;;9.40;1.17;;;;;;;8.13;100.00;101834.31;5073360;28;20547;-62
2021/01/26 06:00:41;;;;;;;9.65;0.90;;;;;;;8.12;100.00;101835.34;5073047;28;20482;-62
2021/01/26 06:03:20;;;;;;;9.30;1.45;;;;;;;8.14;100.00;101835.97;5073114;28;20082;-62
2021/01/26 06:06:10;;;;;;;8.43;1.40;;;;;;;8.17;100.00;101815.72;5073264;28;20033;-62
2021/01/26 06:08:56;;;;;;;3.63;0.93;;;;;;;8.20;100.00;101822.63;5073157;28;20444;-62
2021/01/26 06:11:23;;;;;;;2.05;0.40;;;;;;;8.16;100.00;101823.03;5072937;28;20033;-62
2021/01/26 06:13:48;;;;;;;4.68;0.40;;;;;;;8.13;100.00;101823.41;5073157;28;20029;-62
2021/01/26 06:16:23;;;;;;;6.38;0.90;;;;;;;8.05;100.00;101820.88;5071745;28;20047;-62
2021/01/26 06:18:58;;;;;;;1.20;0.75;;;;;;;8.03;100.00;101822.97;5072900;28;20037;-62
2021/01/26 06:21:25;;;;;;;5.93;0.90;;;;;;;8.03;100.00;101827.56;5072499;28;20053;-62
2021/01/26 06:23:51;;;;;;;4.57;0.47;;;;;;;7.90;100.00;101812.00;5072748;28;20036;-61
2021/01/26 06:26:17;;;;;;;3.38;0.57;;;;;;;7.82;100.00;101821.19;5072701;28;20047;-62
2021/01/26 06:29:05;;;;;;;5.32;0.40;;;;;;;7.74;100.00;101812.31;5072741;28;20048;-62
2021/01/26 06:32:03;;;;;;;4.95;0.80;;;;;;;7.66;100.00;101801.63;5072524;28;20039;-62
2021/01/26 06:34:43;;;;;;;10.13;1.00;;;;;;;7.64;100.00;101798.28;5070269;28;20517;-61
2021/01/26 06:37:27;;;;;;;6.40;1.23;;;;;;;7.62;100.00;101803.03;5072649;28;20032;-62
2021/01/26 06:39:56;;;;;;;5.68;1.35;;;;;;;7.61;100.00;101815.78;5072493;28;20089;-62
2021/01/26 06:42:34;;;;;;;9.40;1.13;;;;;;;7.57;100.00;101822.69;5072220;28;20039;-62
2021/01/26 06:45:15;;;;;;;8.88;0.90;;;;;;;7.52;100.00;101817.00;5072476;28;20478;-61
2021/01/26 06:48:05;;;;;;;12.77;1.10;;;;;;;7.48;100.00;101808.41;5072303;28;20086;-62
2021/01/26 06:50:49;;;;;;;14.32;1.20;;;;;;;7.48;100.00;101813.84;5072234;28;20131;-62
2021/01/26 06:53:49;;;;;;;11.23;1.63;;;;;;;7.45;100.00;101819.66;5072218;28;20086;-62
2021/01/26 06:56:49;;;;;;;5.30;0.90;;;;;;;7.43;100.00;101826.31;5072284;28;20162;-61
2021/01/26 06:59:24;;;;;;;13.10;1.52;;;;;;;7.42;100.00;101820.06;5072028;28;20071;-61
2021/01/26 07:02:14;;;;;;;11.82;0.75;;;;;;;7.37;100.00;101822.53;5072115;28;20464;-62
2021/01/26 07:04:58;;;;;;;4.18;0.85;;;;;;;7.34;100.00;101822.09;5071983;28;20040;-62
2021/01/26 07:07:42;;;;;;;5.47;1.40;;;;;;;7.31;100.00;101812.47;5071906;28;20471;-61
2021/01/26 07:10:21;;;;;;;5.03;0.57;;;;;;;7.27;100.00;101800.28;5071944;28;20046;-61
2021/01/26 07:13:14;;;;;;;4.50;0.93;;;;;;;7.24;100.00;101796.06;5071821;28;20269;-61
2021/01/26 07:16:07;;;;;;;6.57;0.95;;;;;;;7.27;100.00;101794.84;5071514;28;20063;-61
2021/01/26 07:18:35;;;;;;;11.10;1.00;;;;;;;7.30;100.00;101794.47;5071626;28;20040;-61
2021/01/26 07:21:07;;;;;;;10.68;0.90;;;;;;;7.32;100.00;101802.44;5071309;28;20067;-62
2021/01/26 07:23:55;;;;;;;7.30;1.10;;;;;;;7.35;100.00;101792.00;5071529;28;20097;-62
2021/01/26 07:26:20;;;;;;;12.25;1.33;;;;;;;7.36;100.00;101790.97;5070878;28;20440;-62
2021/01/26 07:29:20;;;;;;;5.78;0.95;;;;;;;7.36;100.00;101799.09;5071492;28;20040;-62
2021/01/26 07:32:02;;;;;;;6.63;0.70;;;;;;;7.33;100.00;101799.50;5071432;28;20036;-62
2021/01/26 07:34:34;;;;;;;10.48;2.22;;;;;;;7.29;100.00;101776.50;5071491;28;20028;-62
2021/01/26 07:37:26;;;;;;;7.78;1.08;;;;;;;7.29;100.00;101776.50;5071413;28;20036;-62
2021/01/26 07:40:22;;;;;;;10.63;0.95;;;;;;;7.27;100.00;101762.22;5069948;28;20127;-62
2021/01/26 07:42:59;;;;;;;7.43;1.00;;;;;;;7.27;100.00;101767.66;5071008;28;20044;-61
2021/01/26 07:45:30;;;;;;;6.18;1.02;;;;;;;7.28;100.00;101774.78;5071218;28;20028;-62
2021/01/26 07:48:09;;;;;;;8.15;0.60;;;;;;;7.26;100.00;101766.00;5071135;28;20039;-62
2021/01/26 07:50:41;;;;;;;15.70;1.15;;;;;;;7.25;100.00;101776.03;5071259;28;20481;-62
2021/01/26 07:53:33;;;;;;;7.32;0.90;;;;;;;7.24;100.00;101768.06;5069831;28;20426;-62
2021/01/26 07:56:06;;;;;;;6.78;0.93;;;;;;;7.23;100.00;101766.38;5071062;28;20544;-62
2021/01/26 07:58:34;;;;;;;10.30;1.60;;;;;;;7.23;100.00;101761.78;5071204;28;20032;-62
2021/01/26 08:01:01;;;;;;;5.85;1.20;;;;;;;7.21;100.00;101768.47;5070893;28;20036;-62
2021/01/26 08:03:29;;;;;;;6.45;0.70;;;;;;;7.22;100.00;101770.16;5070898;28;20101;-62
2021/01/26 08:05:57;;;;;;;5.53;0.82;;;;;;;7.20;100.00;101773.06;5070967;28;20036;-62
2021/01/26 08:08:28;;;;;;;5.13;0.50;;;;;;;7.20;100.00;101766.78;5071006;28;20036;-62
2021/01/26 08:11:10;;;;;;;5.43;0.50;;;;;;;7.21;100.00;101782.06;5070876;28;20079;-62
2021/01/26 08:13:41;;;;;;;5.72;1.05;;;;;;;7.19;100.00;101786.84;5071177;28;20441;-62
2021/01/26 08:16:22;;;;;;;4.43;1.05;;;;;;;7.20;100.00;101777.66;5070930;28;20509;-62
2021/01/26 08:18:49;;;;;;;6.50;1.05;;;;;;;7.22;100.00;101791.88;5070775;28;20028;-62
2021/01/26 08:21:49;;;;;;;6.43;0.70;;;;;;;7.22;100.00;101786.44;5070395;28;20063;-62
2021/01/26 08:24:20;;;;;;;8.85;0.60;;;;;;;7.24;100.00;101795.25;5070402;28;20044;-62
2021/01/26 08:26:48;;;;;;;12.32;1.23;;;;;;;7.25;100.00;101794.19;5071187;28;20044;-62
2021/01/26 08:29:44;;;;;;;11.60;1.13;;;;;;;7.26;100.00;101807.59;5070671;28;20036;-62
2021/01/26 08:32:22;;;;;;;9.50;1.02;;;;;;;7.30;100.00;101805.34;5070867;28;20031;-62
2021/01/26 08:35:23;;;;;;;11.73;1.77;;;;;;;7.32;100.00;101813.28;5070645;28;20449;-62
2021/01/26 08:37:52;;;;;;;11.25;0.90;;;;;;;7.33;100.00;101804.09;5071838;28;20056;-62
2021/01/26 08:40:21;;;;;;;13.70;1.15;;;;;;;7.36;100.00;101801.81;5074771;28;20036;-62
2021/01/26 08:42:59;;;;;;;9.32;1.15;;;;;;;7.38;100.00;101807.06;5074621;28;20447;-62
2021/01/26 08:45:25;;;;;;;15.95;1.92;;;;;;;7.38;100.00;101797.03;5074626;28;20049;-62
2021/01/26 08:48:21;;;;;;;14.13;2.05;;;;;;;7.44;100.00;101806.25;5074692;28;20046;-62
2021/01/26 08:50:49;;;;;;;16.60;2.50;;;;;;;7.54;100.00;101813.03;5074543;28;20021;-62
2021/01/26 08:53:27;;;;;;;23.25;2.45;;;;;;;7.69;100.00;101807.50;5073372;28;20610;-61
2021/01/26 08:55:58;;;;;;;12.63;1.90;;;;;;;7.81;100.00;101811.34;5062492;28;20489;-62
2021/01/26 08:58:45;;;;;;;10.63;1.52;;;;;;;7.85;100.00;101803.63;5074466;28;20055;-61
2021/01/26 09:01:34;;;;;;;13.48;2.25;;;;;;;7.90;100.00;101798.41;5063344;28;20078;-61
2021/01/26 09:04:11;;;;;;;10.85;2.05;;;;;;;7.98;100.00;101792.78;5070584;28;20406;-61
2021/01/26 09:06:43;;;;;;;14.93;1.33;;;;;;;8.00;100.00;101788.00;5060553;28;20115;-62
2021/01/26 09:09:30;;;;;;;15.95;1.95;;;;;;;8.00;100.00;101774.41;5059316;28;20434;-61
2021/01/26 09:11:59;;;;;;;11.27;1.40;;;;;;;8.04;100.00;101780.28;5056207;28;20052;-62
2021/01/26 09:14:40;;;;;;;14.32;1.58;;;;;;;8.05;100.00;101799.13;5065369;28;20043;-60
2021/01/26 09:17:10;;;;;;;15.15;1.27;;;;;;;8.06;100.00;101768.16;5073799;28;20098;-59
2021/01/26 09:19:46;;;;;;;14.52;1.55;;;;;;;8.07;100.00;101774.41;5068168;28;20029;-60
2021/01/26 09:22:17;;;;;;;12.18;1.98;;;;;;;8.11;100.00;101783.84;5053886;28;20063;-62
2021/01/26 09:24:43;;;;;;;7.80;1.52;;;;;;;8.08;100.00;101776.94;5057536;28;20039;-62
2021/01/26 09:27:19;;;;;;;8.25;1.05;;;;;;;8.05;100.00;101766.47;5066429;28;20037;-64
2021/01/26 09:29:45;;;;;;;6.97;1.05;;;;;;;8.05;100.00;101766.47;5064438;28;20040;-63
2021/01/26 09:32:12;;;;;;;8.48;1.30;;;;;;;8.07;100.00;101753.50;5053717;28;20041;-61
2021/01/26 09:34:38;;;;;;;10.35;1.83;;;;;;;8.11;100.00;101743.88;5054767;28;20048;-61
2021/01/26 09:37:20;;;;;;;13.13;1.98;;;;;;;8.13;100.00;101740.94;5053747;28;20032;-62
2021/01/26 09:39:46;;;;;;;18.60;1.85;;;;;;;8.13;100.00;101740.94;5055231;28;20040;-61
2021/01/26 09:42:21;;;;;;;14.38;2.00;;;;;;;8.12;100.00;101729.22;5067101;28;20448;-64
2021/01/26 09:45:01;;;;;;;12.60;1.27;;;;;;;8.11;100.00;101737.59;5073082;28;20067;-61
2021/01/26 09:47:28;;;;;;;9.35;1.10;;;;;;;8.09;100.00;101718.75;5055233;28;20029;-63
2021/01/26 09:50:20;;;;;;;11.00;1.48;;;;;;;8.08;100.00;101721.69;5061219;28;20131;-61
2021/01/26 09:52:46;;;;;;;14.25;2.33;;;;;;;8.12;100.00;101726.50;5051473;28;20045;-60
2021/01/26 09:55:14;;;;;;;22.85;1.55;;;;;;;8.11;100.00;101716.66;5053472;28;20044;-61
2021/01/26 09:57:42;;;;;;;19.17;2.53;;;;;;;8.15;100.00;101709.75;5054314;28;21636;-60
2021/01/26 10:00:13;;;;;;;14.63;2.70;;;;;;;8.20;100.00;101702.88;5084332;28;20097;-60
2021/01/26 10:02:41;;;;;;;14.30;1.65;;;;;;;8.21;100.00;101718.16;5093282;28;20375;-60
2021/01/26 10:05:13;;;;;;;16.95;1.88;;;;;;;8.19;100.00;101728.44;5091551;28;20130;-62
2021/01/26 10:07:40;;;;;;;15.80;1.77;;;;;;;8.22;100.00;101717.13;5066491;28;20032;-61
2021/01/26 10:10:32;;;;;;;16.10;1.80;;;;;;;8.23;100.00;101713.34;5055673;28;20037;-62
2021/01/26 10:13:19;;;;;;;11.68;1.67;;;;;;;8.24;100.00;101699.53;5063524;28;20052;-62
2021/01/26 10:15:45;;;;;;;12.63;1.50;;;;;;;8.28;100.00;101721.75;5072060;28;20036;-62
2021/01/26 10:18:13;;;;;;;8.02;1.27;;;;;;;8.26;100.00;101730.09;5055425;28;20036;-60
2021/01/26 10:20:44;;;;;;;21.42;2.38;;;;;;;8.29;100.00;101723.41;5094668;28;20064;-62
2021/01/26 10:23:21;;;;;;;15.27;2.25;;;;;;;8.33;100.00;101736.44;5072599;28;20033;-61
2021/01/26 10:25:48;;;;;;;22.35;2.60;;;;;;;8.35;100.00;101726.19;5058988;28;20063;-61
2021/01/26 10:28:21;;;;;;;19.50;3.72;;;;;;;8.40;100.00;101731.84;5071182;28;20505;-66
2021/01/26 10:30:49;;;;;;;32.05;3.28;;;;;;;8.39;100.00;101708.41;5064312;28;20368;-64
2021/01/26 10:33:34;;;;;;;21.58;2.97;;;;;;;8.42;100.00;101712.59;5068829;28;20083;-66
2021/01/26 10:36:24;;;;;;;19.52;3.22;;;;;;;8.45;100.00;101717.63;5054090;28;20072;-61
2021/01/26 10:38:51;;;;;;;25.95;3.53;;;;;;;8.43;100.00;101714.28;5060935;28;20024;-60
2021/01/26 10:41:32;;;;;;;29.10;3.72;;;;;;;8.44;100.00;101711.34;5057891;28;20041;-62
2021/01/26 10:44:10;;;;;;;26.50;3.30;;;;;;;8.45;100.00;101712.19;5062480;28;20600;-61
2021/01/26 10:46:41;;;;;;;20.85;3.10;;;;;;;8.43;100.00;101714.28;5052191;28;20048;-60
2021/01/26 10:49:30;;;;;;;18.55;2.78;;;;;;;8.41;100.00;101705.47;5069454;28;20103;-62
2021/01/26 10:52:07;;;;;;;14.50;2.47;;;;;;;8.37;100.00;101707.78;5061114;28;20029;-62
2021/01/26 10:54:35;;;;;;;22.60;2.97;;;;;;;8.37;100.00;101690.59;5070499;28;20371;-60
2021/01/26 10:57:01;;;;;;;24.95;3.45;;;;;;;8.35;100.00;101660.03;5065081;28;20399;-60
2021/01/26 10:59:27;;;;;;;25.88;3.47;;;;;;;8.34;100.00;101680.13;5059537;28;20097;-62
2021/01/26 11:01:53;;;;;;;24.33;2.80;;;;;;;8.34;100.00;101677.41;5050904;28;20040;-64
2021/01/26 11:04:19;;;;;;;26.20;2.95;;;;;;;8.32;100.00;101665.84;5055240;28;20041;-60
2021/01/26 11:06:46;;;;;;;20.98;3.30;;;;;;;8.32;100.00;101660.41;5071708;28;20047;-60
2021/01/26 11:09:14;;;;;;;19.70;2.33;;;;;;;8.30;100.00;101670.66;5063783;28;20371;-60
2021/01/26 11:11:42;;;;;;;15.40;2.53;;;;;;;8.26;100.00;101670.22;5081647;28;20027;-61
2021/01/26 11:14:08;;;;;;;24.00;2.17;;;;;;;8.25;100.00;101656.84;5068057;28;20128;-60
2021/01/26 11:16:35;;;;;;;22.85;3.00;;;;;;;8.26;100.00;101647.63;5077853;28;20111;-61
2021/01/26 11:19:04;;;;;;;23.40;2.38;;;;;;;8.24;100.00;101655.16;5081464;28;20039;-60
2021/01/26 11:21:31;;;;;;;18.40;2.88;;;;;;;8.24;100.00;101652.44;5069273;28;20563;-60
2021/01/26 11:23:57;;;;;;;17.15;2.05;;;;;;;8.21;100.00;101652.84;5066911;28;20055;-60
2021/01/26 11:26:23;;;;;;;17.10;2.20;;;;;;;8.24;100.00;101656.00;5058188;28;20532;-61
2021/01/26 11:28:49;;;;;;;23.33;2.53;;;;;;;8.27;100.00;101666.47;5061800;28;20524;-61
2021/01/26 11:31:16;;;;;;;19.60;3.08;;;;;;;8.31;100.00;101647.84;5062499;28;20068;-60
2021/01/26 11:33:42;;;;;;;14.32;2.90;;;;;;;8.32;100.00;101650.34;5052935;28;20433;-60
2021/01/26 11:36:08;;;;;;;13.38;2.20;;;;;;;8.35;100.00;101635.53;5081018;28;20085;-59
2021/01/26 11:38:34;;;;;;;29.48;3.35;;;;;;;8.38;100.00;101640.56;5082308;28;20040;-62
2021/01/26 11:41:04;;;;;;;21.67;3.47;;;;;;;8.39;100.00;101639.50;5069415;28;20041;-62
2021/01/26 11:43:31;;;;;;;23.23;3.05;;;;;;;8.39;100.00;101636.78;5071477;28;20387;-61
2021/01/26 11:45:57;;;;;;;20.02;3.60;;;;;;;8.38;100.00;101624.22;5067394;28;20075;-60
2021/01/26 11:48:25;;;;;;;13.00;2.88;;;;;;;8.41;100.00;101631.97;5058538;28;20032;-60
2021/01/26 11:50:51;;;;;;;21.35;3.25;;;;;;;8.41;100.00;101631.97;5059531;28;20040;-59
2021/01/26 11:53:19;;;;;;;25.17;2.92;;;;;;;8.42;100.00;101622.75;5071198;28;20044;-59
2021/01/26 11:55:44;;;;;;;28.23;3.58;;;;;;;8.43;100.00;101635.31;5087420;28;20035;-58